Dickinson, ND

1:41 PM MST on December 05, 2016 (GMT -0700)
Dickinson Municipal | | Change Station
Active Advisory: Winter Weather Advisory Active Notice: Public Information Statement

Elev 2592 ft 46.80 °N, 102.80 °W | Updated 9 minutes ago

Light Snow
Light Snow Freezing Fog
17 °F
Feels Like -4 °F
N
37
Wind Variable Wind from NW
Gusts 50 mph

Today
High -- | Low -- °F
--% Chance of Precip.
Yesterday
High -- | Low -- °F
Precip. -- in
Pressure 29.66 in
Visibility 0.2 miles
Clouds Few 1500 ft
Scattered Clouds 2500 ft
Overcast 3000 ft
Windchill -4 °F
Dew Point 13 °F
Humidity 84%
Rainfall 0.00 in
Snow Depth Not available.
7:20 AM 4:03 PM
Waxing Crescent, 34% visible
SPECI KDIK 052032Z AUTO 31032G43KT 1/4SM -SN FZFG FEW015 SCT025 OVC030 M08/M11 A2966 RMK AO2 PK WND 30043/2032 P0000 T10831106
Pressure 29.66 in
Visibility 0.2 miles
Clouds Few 1500 ft
Scattered Clouds 2500 ft
Overcast 3000 ft
Windchill -4 °F
Dew Point 13 °F
Humidity 84%
Rainfall 0.00 in
Snow Depth Not available.
7:20 AM 4:03 PM
Waxing Crescent, 34% visible
SPECI KDIK 052032Z AUTO 31032G43KT 1/4SM -SN FZFG FEW015 SCT025 OVC030 M08/M11 A2966 RMK AO2 PK WND 30043/2032 P0000 T10831106

10-Day Weather Forecast

Almanac

Astronomy

Dec. 05, 2016 Rise Set
Actual Time
Civil Twilight
Nautical Twilight
Astronomical Twilight
Moon
Length of Visible Light
Length of Day
Tomorrow will be .
, % of the Moon is Illuminated

Today's Extremes

State Highs State Lows

Community

WunderPhotos

Upload Photos

1,955,861 photos uploaded!

WunderBlog® & News

Nearby

Air Quality

  Air Quality AQ Index Pollutant
Not available.

Snow Depth

Station Depth Elevation

Earthquake Activity

City Distance Mag. Time & Date
Minimum magnitude displayed is 2.5.

Coastal Water Temperatures

Place Temperature

Stations

Nearby Weather Stations

Station Location Temp. Windchill Dew Point Humidity Wind Precip. Elev Updated Type
                   

Watches & Warnings

Winter Weather Advisory
Issued: 1:17 PM MST Dec. 5, 2016 – National Weather Service

... Winter Weather Advisory in effect until noon CST /11 am MST/
Tuesday...

The National Weather Service in Bismarck has issued a Winter
Weather Advisory for western North Dakota... which is in effect
until noon CST /11 am MST/ Tuesday.

* Timing... noon Monday through Tuesday morning.

* Snowfall... snowfall accumulations between 1 and 2 inches.

* Blowing snow... reduced visibility in blowing.

* Main impact... snow and blowing snow will make travel hazardous.

Precautionary/preparedness actions...

A Winter Weather Advisory for snow means that periods of snow
will cause primarily travel difficulties. Be prepared for snow
covered roads and limited visibilities... and use caution while
driving.